createdAt,value
2023-03-07T00:01:09.235Z,22.20
2023-03-07T00:03:36.923Z,23.40
2023-03-07T00:06:09.988Z,21.97
2023-03-07T00:08:37.157Z,22.00
2023-03-07T00:11:06.120Z,20.20
2023-03-07T00:13:35.121Z,21.67
2023-03-07T00:16:07.525Z,21.20
2023-03-07T00:18:35.337Z,21.53
2023-03-07T00:21:08.228Z,23.27
2023-03-07T00:23:37.719Z,22.53
2023-03-07T00:26:07.094Z,22.97
2023-03-07T00:28:35.075Z,21.73
2023-03-07T00:31:04.247Z,23.70
2023-03-07T00:33:31.778Z,21.67
2023-03-07T00:36:01.634Z,21.50
2023-03-07T00:38:30.626Z,21.53
2023-03-07T00:41:11.674Z,22.53
2023-03-07T00:43:39.522Z,22.33
2023-03-07T00:46:07.280Z,23.20
2023-03-07T00:48:37.464Z,25.47
2023-03-07T00:51:06.036Z,24.90
2023-03-07T00:53:33.396Z,24.67
2023-03-07T00:56:18.506Z,24.73
2023-03-07T00:58:46.502Z,24.17
2023-03-07T01:01:16.129Z,27.13
2023-03-07T01:03:44.685Z,26.17
2023-03-07T01:06:17.546Z,34.23
2023-03-07T01:08:45.160Z,33.90
2023-03-07T01:11:14.507Z,29.03
2023-03-07T01:13:41.752Z,30.87
2023-03-07T01:16:11.787Z,32.33
2023-03-07T01:18:41.665Z,32.93
2023-03-07T01:21:30.045Z,35.30
2023-03-07T01:23:58.729Z,33.27
2023-03-07T01:26:28.605Z,34.80
2023-03-07T01:28:59.446Z,32.27
2023-03-07T01:31:27.102Z,33.43
2023-03-07T01:33:54.636Z,32.33
2023-03-07T01:36:30.435Z,32.17
2023-03-07T01:39:10.639Z,31.07
2023-03-07T01:41:41.134Z,30.50
2023-03-07T01:44:22.567Z,32.13
2023-03-07T01:46:55.163Z,28.30
2023-03-07T01:49:31.314Z,28.97
2023-03-07T01:52:20.676Z,28.33
2023-03-07T01:54:56.170Z,27.57
2023-03-07T01:57:28.931Z,27.37
2023-03-07T01:59:59.620Z,28.03
2023-03-07T02:02:27.140Z,27.83
2023-03-07T02:05:05.913Z,26.90
2023-03-07T02:07:40.386Z,25.33
2023-03-07T02:10:08.631Z,25.53
2023-03-07T02:12:35.501Z,25.83
2023-03-07T02:15:04.113Z,26.10
2023-03-07T02:17:32.061Z,24.63
2023-03-07T02:20:24.831Z,25.77
2023-03-07T02:22:51.885Z,22.80
2023-03-07T02:25:58.105Z,24.77
2023-03-07T02:28:25.309Z,24.70
2023-03-07T02:31:00.369Z,23.07
2023-03-07T02:33:30.820Z,26.13
2023-03-07T02:36:24.321Z,26.03
2023-03-07T02:39:02.670Z,24.40
2023-03-07T02:41:32.460Z,25.13
2023-03-07T02:44:02.524Z,23.10
2023-03-07T02:46:30.045Z,23.27
2023-03-07T02:48:56.927Z,23.93
2023-03-07T02:51:24.318Z,23.87
2023-03-07T02:53:51.327Z,24.17
2023-03-07T02:56:18.507Z,23.73
2023-03-07T02:58:45.967Z,23.00
2023-03-07T03:01:13.391Z,24.77
2023-03-07T03:03:40.271Z,22.83
2023-03-07T03:06:07.298Z,23.83
2023-03-07T03:08:34.855Z,23.67
2023-03-07T03:11:02.040Z,23.10
2023-03-07T03:13:29.353Z,22.80
2023-03-07T03:15:58.123Z,24.20
2023-03-07T03:18:27.817Z,21.50
2023-03-07T03:20:54.824Z,22.83
2023-03-07T03:23:21.654Z,24.70
2023-03-07T03:26:05.305Z,24.60
2023-03-07T03:28:33.465Z,25.17
2023-03-07T03:31:02.249Z,30.37
2023-03-07T03:33:30.659Z,28.60
2023-03-07T03:35:59.487Z,30.93
2023-03-07T03:38:27.234Z,33.47
2023-03-07T03:40:55.660Z,31.83
2023-03-07T03:43:22.651Z,33.23
2023-03-07T03:45:56.878Z,32.97
2023-03-07T03:48:26.929Z,34.67
2023-03-07T03:51:06.130Z,36.60
2023-03-07T03:53:34.476Z,34.47
2023-03-07T03:56:12.624Z,38.07
2023-03-07T03:58:40.515Z,37.73
2023-03-07T04:01:11.625Z,38.17
2023-03-07T04:03:41.316Z,39.13
2023-03-07T04:06:11.989Z,38.50
2023-03-07T04:08:39.957Z,41.63
2023-03-07T04:11:07.213Z,39.00
2023-03-07T04:13:35.344Z,42.20
2023-03-07T04:16:03.050Z,40.83
2023-03-07T04:18:30.053Z,41.03
2023-03-07T04:20:57.135Z,40.60
2023-03-07T04:23:25.000Z,42.40
2023-03-07T04:25:57.398Z,39.43
2023-03-07T04:28:26.962Z,38.73
2023-03-07T04:30:56.260Z,40.20
2023-03-07T04:33:24.352Z,39.40
2023-03-07T04:35:51.384Z,37.83
2023-03-07T04:38:18.342Z,37.97
2023-03-07T04:40:45.440Z,40.43
2023-03-07T04:43:12.225Z,42.70
2023-03-07T04:45:39.571Z,39.20
2023-03-07T04:48:06.721Z,40.30
2023-03-07T04:50:35.939Z,41.00
2023-03-07T04:53:02.688Z,34.93
2023-03-07T04:55:30.105Z,41.93
2023-03-07T04:57:57.995Z,36.77
2023-03-07T05:00:25.494Z,36.33
2023-03-07T05:02:52.384Z,33.53
2023-03-07T05:05:19.850Z,38.47
2023-03-07T05:07:46.703Z,37.40
2023-03-07T05:10:13.804Z,36.90
2023-03-07T05:12:40.970Z,31.00
2023-03-07T05:15:11.010Z,36.03
2023-03-07T05:17:39.093Z,36.07
2023-03-07T05:20:07.106Z,29.40
2023-03-07T05:22:35.309Z,30.27
2023-03-07T05:25:02.598Z,31.33
2023-03-07T05:27:29.485Z,28.67
2023-03-07T05:29:56.556Z,30.53
2023-03-07T05:32:23.591Z,29.90
2023-03-07T05:34:51.100Z,31.33
2023-03-07T05:37:20.128Z,29.57
2023-03-07T05:39:47.446Z,35.27
2023-03-07T05:42:15.629Z,43.17
2023-03-07T05:44:43.519Z,43.53
2023-03-07T05:47:11.174Z,45.33
2023-03-07T05:49:38.800Z,45.60
2023-03-07T05:52:05.958Z,44.63
2023-03-07T05:54:33.109Z,41.93
2023-03-07T05:56:59.944Z,36.83
2023-03-07T05:59:27.154Z,34.90
2023-03-07T06:01:54.037Z,35.63
2023-03-07T06:04:21.305Z,32.00
2023-03-07T06:06:48.212Z,31.10
2023-03-07T06:09:15.369Z,34.57
2023-03-07T06:11:42.714Z,36.27
2023-03-07T06:14:10.643Z,35.53
2023-03-07T06:16:37.376Z,38.47
2023-03-07T06:19:04.491Z,39.57
2023-03-07T06:21:31.535Z,37.20
2023-03-07T06:23:58.907Z,30.80
2023-03-07T06:26:26.188Z,33.47
2023-03-07T06:28:55.338Z,34.43
2023-03-07T06:31:25.201Z,27.07
2023-03-07T06:33:52.952Z,28.40
2023-03-07T06:36:21.180Z,28.93
2023-03-07T06:38:54.604Z,31.00
2023-03-07T06:41:23.271Z,31.13
2023-03-07T06:43:53.161Z,30.90
2023-03-07T06:46:25.658Z,30.30
2023-03-07T06:48:55.193Z,31.37
2023-03-07T06:51:23.122Z,33.53
2023-03-07T06:53:50.173Z,34.40
2023-03-07T06:56:17.839Z,34.37
2023-03-07T06:58:44.912Z,35.37
2023-03-07T07:01:22.897Z,35.23
2023-03-07T07:03:52.278Z,32.93
2023-03-07T07:06:19.533Z,31.67
2023-03-07T07:08:48.658Z,32.07
2023-03-07T07:11:15.949Z,31.67
2023-03-07T07:13:45.638Z,30.33
2023-03-07T07:16:14.367Z,32.10
2023-03-07T07:18:41.509Z,31.00
2023-03-07T07:21:09.278Z,32.80
2023-03-07T07:23:36.694Z,35.73
2023-03-07T07:26:04.710Z,33.10
2023-03-07T07:28:33.384Z,35.03
2023-03-07T07:31:00.410Z,30.27
2023-03-07T07:33:28.666Z,36.00
2023-03-07T07:35:55.653Z,33.87
2023-03-07T07:38:22.718Z,34.77
2023-03-07T07:40:49.496Z,32.63
2023-03-07T07:43:17.653Z,34.63
2023-03-07T07:45:55.860Z,35.97
2023-03-07T07:48:23.029Z,34.30
2023-03-07T07:50:49.790Z,34.60
2023-03-07T07:53:19.885Z,34.97
2023-03-07T07:55:48.916Z,36.30
2023-03-07T07:58:16.712Z,35.33
2023-03-07T08:00:45.554Z,36.77
2023-03-07T08:03:12.559Z,36.80
2023-03-07T08:05:44.225Z,33.10
2023-03-07T08:08:11.264Z,36.37
2023-03-07T08:10:43.002Z,35.03
2023-03-07T08:13:14.348Z,37.77
2023-03-07T08:15:42.341Z,35.80
2023-03-07T08:18:10.943Z,37.30
2023-03-07T08:20:38.424Z,35.57
2023-03-07T08:23:05.467Z,40.03
2023-03-07T08:25:32.495Z,38.13
2023-03-07T08:27:59.771Z,34.00
2023-03-07T08:30:29.500Z,36.70
2023-03-07T08:32:57.082Z,36.97
2023-03-07T08:35:25.094Z,35.00
2023-03-07T08:38:01.889Z,36.80
2023-03-07T08:40:30.700Z,34.20
2023-03-07T08:42:59.497Z,35.17
2023-03-07T08:45:26.917Z,36.53
2023-03-07T08:47:57.613Z,37.13
2023-03-07T08:50:27.820Z,36.47
2023-03-07T08:52:54.927Z,35.27
2023-03-07T08:55:21.736Z,37.17
2023-03-07T08:57:48.784Z,35.97
2023-03-07T09:00:16.135Z,34.47
2023-03-07T09:02:43.263Z,36.83
2023-03-07T09:05:10.503Z,35.37
2023-03-07T09:07:37.647Z,36.83
2023-03-07T09:10:05.896Z,32.90
2023-03-07T09:12:33.894Z,35.33
2023-03-07T09:15:00.684Z,36.67
2023-03-07T09:17:27.933Z,36.97
2023-03-07T09:19:56.504Z,37.23
2023-03-07T09:22:23.544Z,38.17
2023-03-07T09:24:50.280Z,36.80
2023-03-07T09:27:17.317Z,36.47
2023-03-07T09:29:44.296Z,33.93
2023-03-07T09:32:11.337Z,39.33
2023-03-07T09:34:38.162Z,40.43
2023-03-07T09:37:05.265Z,41.00
2023-03-07T09:39:32.751Z,39.30
2023-03-07T09:42:27.837Z,41.30
2023-03-07T09:45:10.539Z,42.70
2023-03-07T09:48:12.312Z,40.80
2023-03-07T09:50:49.176Z,44.93
2023-03-07T09:53:24.497Z,42.10
2023-03-07T09:55:57.199Z,43.97
2023-03-07T09:58:25.974Z,42.27
2023-03-07T10:00:57.488Z,44.27
2023-03-07T10:03:38.980Z,46.67
2023-03-07T10:06:24.998Z,48.67
2023-03-07T10:08:54.038Z,46.70
2023-03-07T10:11:26.688Z,43.63
2023-03-07T10:14:03.576Z,41.80
2023-03-07T10:16:39.454Z,41.57
2023-03-07T10:19:29.885Z,41.30
2023-03-07T10:22:09.476Z,39.00
2023-03-07T10:24:48.879Z,39.67
2023-03-07T10:27:16.349Z,41.20
2023-03-07T10:29:51.904Z,40.80
2023-03-07T10:32:20.964Z,40.87
2023-03-07T10:35:11.157Z,41.40
2023-03-07T10:37:56.900Z,37.53
2023-03-07T10:40:25.539Z,39.47
2023-03-07T10:42:53.455Z,38.63
2023-03-07T10:45:20.831Z,37.30
2023-03-07T10:47:47.685Z,38.17
2023-03-07T10:50:33.609Z,38.37
2023-03-07T10:53:03.270Z,37.10
2023-03-07T10:55:36.538Z,38.93
2023-03-07T10:58:24.056Z,38.30
2023-03-07T11:01:17.145Z,41.10
2023-03-07T11:03:54.237Z,38.90
2023-03-07T11:06:30.940Z,33.43
2023-03-07T11:09:07.372Z,41.07
2023-03-07T11:11:36.681Z,37.70
2023-03-07T11:14:14.392Z,38.10
2023-03-07T11:16:49.166Z,39.50
2023-03-07T11:19:36.961Z,38.43
2023-03-07T11:22:24.107Z,37.00
2023-03-07T11:24:59.171Z,33.13
2023-03-07T11:27:32.057Z,34.20
2023-03-07T11:30:15.523Z,32.83
2023-03-07T11:32:50.816Z,32.50
2023-03-07T11:35:22.429Z,35.23
2023-03-07T11:38:06.301Z,30.20
2023-03-07T11:40:49.932Z,33.23
2023-03-07T11:43:22.134Z,30.27
2023-03-07T11:45:55.128Z,28.23
2023-03-07T11:48:45.317Z,29.97
2023-03-07T11:51:29.553Z,29.40
2023-03-07T11:54:03.366Z,28.63
2023-03-07T11:56:37.064Z,27.73
2023-03-07T11:59:35.058Z,26.30
2023-03-07T12:02:04.133Z,27.10
2023-03-07T12:04:57.944Z,26.37
2023-03-07T12:07:43.914Z,26.00
2023-03-07T12:10:26.206Z,26.10
2023-03-07T12:12:59.012Z,25.03
2023-03-07T12:15:34.930Z,25.83
2023-03-07T12:18:16.784Z,28.13
2023-03-07T12:21:01.631Z,25.37
2023-03-07T12:23:37.919Z,26.20
2023-03-07T12:26:18.481Z,24.07
2023-03-07T12:28:55.063Z,24.70
2023-03-07T12:31:31.543Z,24.60
2023-03-07T12:34:02.727Z,24.33
2023-03-07T12:36:48.435Z,23.93
2023-03-07T12:39:24.674Z,24.67
2023-03-07T12:42:00.236Z,25.63
2023-03-07T12:44:40.867Z,24.50
2023-03-07T12:47:34.452Z,25.07
2023-03-07T12:50:26.193Z,22.30
2023-03-07T12:53:02.196Z,24.23
2023-03-07T12:55:44.588Z,25.30
2023-03-07T12:58:44.510Z,24.30
2023-03-07T13:01:19.310Z,22.40
2023-03-07T13:03:53.636Z,24.03
2023-03-07T13:06:22.730Z,24.67
2023-03-07T13:08:56.162Z,23.63
2023-03-07T13:11:32.293Z,24.00
2023-03-07T13:14:01.258Z,26.80
2023-03-07T13:16:41.729Z,25.43
2023-03-07T13:19:36.637Z,24.97
2023-03-07T13:22:16.674Z,24.63
2023-03-07T13:24:48.373Z,24.07
2023-03-07T13:27:24.168Z,25.77
2023-03-07T13:30:10.142Z,26.03
2023-03-07T13:32:52.243Z,25.83
2023-03-07T13:35:31.221Z,24.30
2023-03-07T13:38:03.706Z,26.37
2023-03-07T13:40:33.455Z,24.83
2023-03-07T13:43:01.555Z,25.60
2023-03-07T13:45:37.467Z,25.00
2023-03-07T13:48:28.887Z,27.90
2023-03-07T13:51:01.329Z,27.63
2023-03-07T13:53:28.108Z,27.97
2023-03-07T13:56:02.127Z,27.80
2023-03-07T13:58:37.405Z,27.67
2023-03-07T14:01:21.721Z,25.40
2023-03-07T14:03:55.932Z,26.33
2023-03-07T14:06:26.391Z,27.23
2023-03-07T14:08:54.962Z,27.80
2023-03-07T14:11:58.452Z,28.33
2023-03-07T14:15:08.604Z,27.67
2023-03-07T14:17:38.311Z,29.03
2023-03-07T14:20:42.033Z,25.53
2023-03-07T14:23:30.133Z,28.47
2023-03-07T14:26:11.675Z,27.90
2023-03-07T14:29:03.774Z,26.77
2023-03-07T14:31:38.740Z,29.33
2023-03-07T14:34:22.178Z,30.57
2023-03-07T14:37:00.497Z,29.43
2023-03-07T14:39:33.344Z,29.63
2023-03-07T14:42:18.750Z,29.53
2023-03-07T14:45:08.962Z,30.00
2023-03-07T14:47:57.048Z,30.17
2023-03-07T14:50:29.153Z,31.90
2023-03-07T14:53:02.364Z,34.40
2023-03-07T14:55:36.175Z,32.40
2023-03-07T14:58:03.229Z,31.43
2023-03-07T15:00:32.640Z,36.43
2023-03-07T15:03:08.049Z,34.83
2023-03-07T15:05:52.942Z,38.33
2023-03-07T15:08:23.806Z,35.50
2023-03-07T15:10:59.620Z,41.20
2023-03-07T15:13:32.124Z,30.93
2023-03-07T15:16:03.712Z,30.73
2023-03-07T15:18:33.381Z,30.57
2023-03-07T15:21:02.245Z,32.57
2023-03-07T15:23:29.880Z,28.50
2023-03-07T15:26:10.822Z,30.47
2023-03-07T15:28:42.720Z,31.37
2023-03-07T15:31:10.330Z,29.53
2023-03-07T15:33:37.162Z,29.33
2023-03-07T15:36:13.443Z,27.40
2023-03-07T15:38:43.129Z,32.47
2023-03-07T15:41:36.317Z,32.10
2023-03-07T15:44:22.163Z,33.63
2023-03-07T15:46:52.565Z,29.17
2023-03-07T15:49:43.624Z,30.30
2023-03-07T15:52:31.091Z,31.63
2023-03-07T15:54:59.914Z,28.77
2023-03-07T15:57:32.022Z,27.57
2023-03-07T16:00:06.723Z,31.63
2023-03-07T16:02:52.731Z,31.47
2023-03-07T16:05:19.500Z,29.67
2023-03-07T16:07:47.705Z,30.13
2023-03-07T16:10:15.014Z,27.40
2023-03-07T16:12:46.498Z,27.70
2023-03-07T16:15:19.463Z,25.20
2023-03-07T16:17:53.298Z,28.40
2023-03-07T16:20:24.647Z,33.00
2023-03-07T16:22:52.695Z,32.03
2023-03-07T16:25:20.746Z,31.80
2023-03-07T16:27:54.086Z,27.60
2023-03-07T16:30:27.242Z,32.07
2023-03-07T16:32:54.978Z,32.03
2023-03-07T16:35:24.515Z,32.30
2023-03-07T16:37:52.577Z,31.93
2023-03-07T16:40:20.697Z,32.40
2023-03-07T16:42:50.356Z,32.87
2023-03-07T16:45:26.351Z,32.63
2023-03-07T16:47:56.055Z,31.00
2023-03-07T16:50:26.052Z,27.70
2023-03-07T16:52:53.214Z,29.40
2023-03-07T16:55:20.735Z,31.20
2023-03-07T16:57:54.988Z,33.07
2023-03-07T17:00:24.559Z,30.90
2023-03-07T17:02:53.943Z,33.53
2023-03-07T17:05:27.357Z,36.33
2023-03-07T17:07:56.561Z,35.00
2023-03-07T17:10:26.419Z,33.80
2023-03-07T17:12:56.033Z,27.13
2023-03-07T17:15:30.600Z,28.90
2023-03-07T17:17:58.912Z,30.33
2023-03-07T17:20:26.506Z,27.87
2023-03-07T17:22:53.901Z,29.93
2023-03-07T17:25:21.621Z,29.37
2023-03-07T17:27:52.894Z,30.83
2023-03-07T17:30:25.465Z,27.60
2023-03-07T17:32:52.835Z,20.27
2023-03-07T17:35:20.106Z,17.77
2023-03-07T17:37:50.420Z,17.17
2023-03-07T17:40:17.395Z,15.73
2023-03-07T17:42:44.890Z,15.57
2023-03-07T17:45:13.214Z,13.90
2023-03-07T17:47:40.759Z,13.73
2023-03-07T17:50:09.965Z,11.43
2023-03-07T17:52:37.197Z,9.10
2023-03-07T17:55:09.342Z,9.23
2023-03-07T17:57:36.663Z,9.97
2023-03-07T18:00:14.265Z,8.77
2023-03-07T18:02:44.878Z,8.00
2023-03-07T18:05:13.170Z,7.70
2023-03-07T18:07:41.337Z,6.83
2023-03-07T18:10:10.104Z,6.57
2023-03-07T18:12:39.126Z,6.47
2023-03-07T18:15:08.795Z,6.30
2023-03-07T18:17:47.399Z,5.30
2023-03-07T18:20:16.732Z,5.03
2023-03-07T18:22:43.764Z,5.27
2023-03-07T18:25:14.312Z,4.20
2023-03-07T18:27:41.881Z,4.53
2023-03-07T18:30:09.334Z,5.20
2023-03-07T18:32:36.506Z,4.27
2023-03-07T18:35:04.209Z,4.83
2023-03-07T18:37:31.216Z,4.60
2023-03-07T18:39:58.002Z,5.93
2023-03-07T18:42:24.973Z,5.27
2023-03-07T18:44:51.718Z,5.50
2023-03-07T18:47:18.702Z,4.70
2023-03-07T18:49:45.474Z,4.93
2023-03-07T18:52:12.452Z,4.43
2023-03-07T18:54:39.544Z,5.10
2023-03-07T18:57:06.547Z,5.07
2023-03-07T18:59:33.346Z,5.10
2023-03-07T19:02:03.054Z,6.03
2023-03-07T19:04:31.360Z,6.17
2023-03-07T19:07:00.641Z,5.50
2023-03-07T19:09:27.797Z,6.03
2023-03-07T19:11:54.833Z,5.93
2023-03-07T19:14:21.677Z,6.50
2023-03-07T19:16:48.868Z,6.97
2023-03-07T19:19:15.810Z,6.33
2023-03-07T19:21:42.969Z,6.40
2023-03-07T19:24:11.806Z,6.67
2023-03-07T19:26:40.106Z,5.10
2023-03-07T19:29:06.908Z,5.67
2023-03-07T19:31:34.980Z,5.63
2023-03-07T19:34:05.072Z,5.67
2023-03-07T19:36:34.542Z,5.43
2023-03-07T19:39:01.360Z,6.13
2023-03-07T19:41:30.790Z,6.00
2023-03-07T19:43:59.146Z,5.53
2023-03-07T19:46:26.442Z,5.93
2023-03-07T19:48:53.458Z,5.30
2023-03-07T19:51:23.024Z,6.30
2023-03-07T19:53:50.402Z,5.87
2023-03-07T19:56:29.099Z,5.63
2023-03-07T19:58:57.522Z,6.57
2023-03-07T20:01:24.979Z,6.40
2023-03-07T20:03:52.609Z,5.93
2023-03-07T20:06:22.438Z,6.80
2023-03-07T20:08:50.780Z,6.87
2023-03-07T20:11:20.594Z,7.00
2023-03-07T20:13:48.150Z,7.50
2023-03-07T20:16:17.131Z,7.40
2023-03-07T20:18:48.611Z,8.50
2023-03-07T20:21:17.094Z,8.77
2023-03-07T20:23:45.786Z,7.93
2023-03-07T20:26:19.664Z,8.33
2023-03-07T20:28:46.434Z,8.87
2023-03-07T20:31:13.861Z,9.90
2023-03-07T20:33:46.761Z,9.03
2023-03-07T20:36:25.555Z,8.17
2023-03-07T20:38:54.820Z,10.07
2023-03-07T20:41:24.551Z,10.33
2023-03-07T20:43:53.525Z,10.60
2023-03-07T20:46:21.904Z,10.67
2023-03-07T20:48:49.512Z,9.23
2023-03-07T20:51:21.473Z,9.93
2023-03-07T20:53:50.683Z,9.17
2023-03-07T20:56:18.851Z,10.30
2023-03-07T20:58:46.456Z,9.97
2023-03-07T21:01:16.331Z,9.83
2023-03-07T21:03:43.431Z,9.90
2023-03-07T21:06:10.830Z,10.63
2023-03-07T21:08:37.984Z,10.57
2023-03-07T21:11:06.331Z,10.27
2023-03-07T21:13:37.428Z,9.97
2023-03-07T21:16:10.377Z,10.63
2023-03-07T21:18:37.414Z,9.63
2023-03-07T21:21:11.216Z,9.30
2023-03-07T21:23:38.446Z,9.60
2023-03-07T21:26:08.147Z,10.23
2023-03-07T21:28:35.529Z,10.23
2023-03-07T21:31:08.593Z,9.80
2023-03-07T21:33:35.967Z,9.90
2023-03-07T21:36:04.025Z,10.13
2023-03-07T21:38:32.037Z,10.43
2023-03-07T21:40:59.601Z,10.50
2023-03-07T21:43:27.174Z,9.23
2023-03-07T21:45:54.662Z,9.70
2023-03-07T21:48:21.606Z,9.40
2023-03-07T21:50:51.652Z,10.33
2023-03-07T21:53:19.260Z,9.97
2023-03-07T21:55:54.876Z,11.07
2023-03-07T21:58:22.042Z,10.77
2023-03-07T22:00:50.196Z,10.60
2023-03-07T22:03:18.006Z,10.43
2023-03-07T22:05:45.227Z,11.20
2023-03-07T22:08:12.684Z,10.10
2023-03-07T22:10:39.705Z,11.33
2023-03-07T22:13:06.955Z,10.10
2023-03-07T22:15:34.173Z,10.20
2023-03-07T22:18:01.039Z,9.83
2023-03-07T22:20:28.020Z,10.90
2023-03-07T22:22:54.697Z,10.63
2023-03-07T22:25:21.756Z,12.17
2023-03-07T22:27:48.603Z,10.37
2023-03-07T22:30:15.648Z,10.87
2023-03-07T22:32:44.880Z,10.43
2023-03-07T22:35:12.072Z,11.93
2023-03-07T22:37:38.921Z,11.80
2023-03-07T22:40:06.798Z,10.90
2023-03-07T22:42:33.647Z,10.53
2023-03-07T22:45:00.688Z,11.17
2023-03-07T22:47:29.381Z,11.03
2023-03-07T22:49:56.802Z,12.23
2023-03-07T22:52:23.547Z,11.70
2023-03-07T22:54:50.570Z,11.67
2023-03-07T22:57:17.438Z,11.00
2023-03-07T22:59:44.395Z,10.83
2023-03-07T23:02:11.162Z,10.10
2023-03-07T23:04:38.245Z,10.07
2023-03-07T23:07:05.744Z,10.60
2023-03-07T23:09:32.883Z,10.20
2023-03-07T23:11:59.590Z,10.10
2023-03-07T23:14:26.814Z,11.13
2023-03-07T23:16:53.524Z,10.30
2023-03-07T23:19:20.525Z,10.77
2023-03-07T23:21:47.292Z,9.70
2023-03-07T23:24:14.342Z,10.13
2023-03-07T23:26:41.072Z,10.90
2023-03-07T23:29:09.923Z,9.63
2023-03-07T23:31:38.738Z,9.43
2023-03-07T23:34:08.510Z,10.93
2023-03-07T23:36:36.006Z,10.53
2023-03-07T23:39:03.407Z,11.03
2023-03-07T23:41:31.639Z,10.77
2023-03-07T23:44:00.345Z,10.57
2023-03-07T23:46:28.126Z,11.13
2023-03-07T23:48:56.313Z,10.47
2023-03-07T23:51:24.092Z,11.73
2023-03-07T23:53:51.438Z,10.03
2023-03-07T23:56:18.161Z,10.10
2023-03-07T23:58:49.214Z,12.43
